createdAt,value
2017-10-13T00:04:26.441Z,11.40
2017-10-13T00:09:29.635Z,11.40
2017-10-13T00:14:32.820Z,11.40
2017-10-13T00:19:35.999Z,11.30
2017-10-13T00:24:39.941Z,11.30
2017-10-13T00:29:43.123Z,11.20
2017-10-13T00:34:47.095Z,11.00
2017-10-13T00:39:50.282Z,11.10
2017-10-13T00:44:53.483Z,11.00
2017-10-13T00:49:56.678Z,11.10
2017-10-13T00:54:59.877Z,11.20
2017-10-13T01:00:03.025Z,11.10
2017-10-13T01:05:06.239Z,11.20
2017-10-13T01:10:09.394Z,11.20
2017-10-13T01:15:12.575Z,11.30
2017-10-13T01:20:15.725Z,11.40
2017-10-13T01:25:18.917Z,11.40
2017-10-13T01:30:22.140Z,11.40
2017-10-13T01:35:25.345Z,11.40
2017-10-13T01:40:28.623Z,11.50
2017-10-13T01:45:32.582Z,11.70
2017-10-13T01:50:35.765Z,11.70
2017-10-13T01:55:39.063Z,11.70
2017-10-13T02:00:43.058Z,11.70
2017-10-13T02:05:46.227Z,11.60
2017-10-13T02:10:49.429Z,11.70
2017-10-13T02:15:52.649Z,11.60
2017-10-13T02:20:56.078Z,11.50
2017-10-13T02:25:59.254Z,11.40
2017-10-13T02:31:02.413Z,11.20
2017-10-13T02:36:06.382Z,11.20
2017-10-13T02:41:09.563Z,11.20
2017-10-13T02:46:13.538Z,11.10
2017-10-13T02:51:16.702Z,11.00
2017-10-13T02:56:19.885Z,11.00
2017-10-13T03:01:23.830Z,10.70
2017-10-13T03:06:27.030Z,10.70
2017-10-13T03:11:30.986Z,10.50
2017-10-13T03:16:34.161Z,10.50
2017-10-13T03:21:37.549Z,10.40
2017-10-13T03:26:40.833Z,10.20
2017-10-13T03:31:44.033Z,10.20
2017-10-13T03:36:47.396Z,10.30
2017-10-13T03:41:51.335Z,10.10
2017-10-13T03:46:55.405Z,10.10
2017-10-13T03:51:58.573Z,9.90
2017-10-13T03:57:01.753Z,10.00
2017-10-13T04:02:05.858Z,9.80
2017-10-13T04:07:09.228Z,9.80
2017-10-13T04:12:12.410Z,9.60
2017-10-13T04:17:15.593Z,9.80
2017-10-13T04:22:19.756Z,9.80
2017-10-13T04:27:22.946Z,9.70
2017-10-13T04:32:26.894Z,9.80
2017-10-13T04:37:30.057Z,9.80
2017-10-13T04:42:33.260Z,9.80
2017-10-13T04:47:36.433Z,10.00
2017-10-13T04:52:39.621Z,9.80
2017-10-13T04:57:42.806Z,9.80
2017-10-13T05:02:46.010Z,9.70
2017-10-13T05:07:49.216Z,9.60
2017-10-13T05:12:53.161Z,9.80
2017-10-13T05:17:56.358Z,9.70
2017-10-13T05:22:59.531Z,9.60
2017-10-13T05:28:03.481Z,9.50
2017-10-13T05:33:07.414Z,9.40
2017-10-13T05:38:10.607Z,9.30
2017-10-13T05:43:13.766Z,9.40
2017-10-13T05:48:16.946Z,9.70
2017-10-13T05:53:20.142Z,9.50
2017-10-13T05:58:23.328Z,9.50
2017-10-13T06:03:27.255Z,9.70
2017-10-13T06:08:30.436Z,9.60
2017-10-13T06:13:33.633Z,9.70
2017-10-13T06:18:37.030Z,9.80
2017-10-13T06:23:40.221Z,10.10
2017-10-13T06:28:43.421Z,10.30
2017-10-13T06:33:46.650Z,10.50
2017-10-13T06:38:49.889Z,10.60
2017-10-13T06:43:53.134Z,10.90
2017-10-13T06:48:56.328Z,11.00
2017-10-13T06:53:59.518Z,10.80
2017-10-13T06:59:03.467Z,11.30
2017-10-13T07:04:06.628Z,11.40
2017-10-13T07:09:09.825Z,11.60
2017-10-13T07:14:13.208Z,11.40
2017-10-13T07:19:16.377Z,11.60
2017-10-13T07:24:19.738Z,12.00
2017-10-13T07:29:22.926Z,12.30
2017-10-13T07:34:26.132Z,12.40
2017-10-13T07:39:29.313Z,12.60
2017-10-13T07:44:32.510Z,12.80
2017-10-13T07:49:36.450Z,14.10
2017-10-13T07:54:39.648Z,14.10
2017-10-13T07:59:42.849Z,14.20
2017-10-13T08:04:46.825Z,14.60
2017-10-13T08:09:50.143Z,14.60
2017-10-13T08:14:53.351Z,14.30
2017-10-13T08:19:56.586Z,14.20
2017-10-13T08:25:00.591Z,14.40
2017-10-13T08:30:03.774Z,14.40
2017-10-13T08:35:07.273Z,14.40
2017-10-13T08:40:10.494Z,14.30
2017-10-13T08:45:13.691Z,14.50
2017-10-13T08:50:18.166Z,14.70
2017-10-13T08:55:22.130Z,15.20
2017-10-13T09:00:25.310Z,15.20
2017-10-13T09:05:29.408Z,15.40
2017-10-13T09:10:33.725Z,15.30
2017-10-13T09:15:37.083Z,15.80
2017-10-13T09:20:41.496Z,16.00
2017-10-13T09:25:44.755Z,16.00
2017-10-13T09:30:47.953Z,16.20
2017-10-13T09:35:51.158Z,16.20
2017-10-13T09:40:54.329Z,16.10
2017-10-13T09:45:58.273Z,16.10
2017-10-13T09:51:01.450Z,16.00
2017-10-13T09:56:04.638Z,16.40
2017-10-13T10:01:08.142Z,16.30
2017-10-13T10:06:11.352Z,16.40
2017-10-13T10:11:14.535Z,16.40
2017-10-13T10:16:17.717Z,16.90
2017-10-13T10:21:20.925Z,16.90
2017-10-13T10:26:24.108Z,17.00
2017-10-13T10:31:27.494Z,17.40
2017-10-13T10:36:30.702Z,17.50
2017-10-13T10:41:33.912Z,17.50
2017-10-13T10:46:37.322Z,17.50
2017-10-13T10:51:40.528Z,17.70
2017-10-13T10:56:43.941Z,17.90
2017-10-13T11:01:47.205Z,18.10
2017-10-13T11:06:50.421Z,18.30
2017-10-13T11:11:53.889Z,18.50
2017-10-13T11:16:57.071Z,18.90
2017-10-13T11:22:00.819Z,19.20
2017-10-13T11:27:04.767Z,19.20
2017-10-13T11:32:07.998Z,19.20
2017-10-13T11:37:11.221Z,19.10
2017-10-13T11:42:14.448Z,19.50
2017-10-13T11:47:17.606Z,19.30
2017-10-13T11:52:20.953Z,19.40
2017-10-13T11:57:24.237Z,19.50
2017-10-13T12:02:27.453Z,19.40
2017-10-13T12:07:30.655Z,19.60
2017-10-13T12:12:33.909Z,19.60
2017-10-13T12:17:37.999Z,19.70
2017-10-13T12:22:41.192Z,19.70
2017-10-13T12:27:45.301Z,19.20
2017-10-13T12:32:48.553Z,19.20
2017-10-13T12:37:51.758Z,19.20
2017-10-13T12:42:54.950Z,19.30
2017-10-13T12:47:58.165Z,19.40
2017-10-13T12:53:02.553Z,19.50
2017-10-13T12:58:05.755Z,19.60
2017-10-13T13:03:10.282Z,19.50
2017-10-13T13:08:14.346Z,19.50
2017-10-13T13:13:18.613Z,19.50
2017-10-13T13:18:24.181Z,19.50
2017-10-13T13:23:35.016Z,19.60
2017-10-13T13:28:38.234Z,19.50
2017-10-13T13:33:41.425Z,19.50
2017-10-13T13:38:47.000Z,19.40
2017-10-13T13:43:50.190Z,19.50
2017-10-13T13:48:53.377Z,19.20
2017-10-13T13:53:58.018Z,19.30
2017-10-13T13:59:07.269Z,19.00
2017-10-13T14:04:11.026Z,19.00
2017-10-13T14:09:14.651Z,19.00
2017-10-13T14:14:18.594Z,19.10
2017-10-13T14:19:21.975Z,19.00
2017-10-13T14:24:25.174Z,19.00
2017-10-13T14:29:28.382Z,18.80
2017-10-13T14:34:31.639Z,18.80
2017-10-13T14:39:36.676Z,18.80
2017-10-13T14:44:39.894Z,18.70
2017-10-13T14:49:43.101Z,18.80
2017-10-13T14:54:46.257Z,18.80
2017-10-13T14:59:49.637Z,18.90
2017-10-13T15:04:53.708Z,19.00
2017-10-13T15:09:56.958Z,19.00
2017-10-13T15:15:01.370Z,18.90
2017-10-13T15:20:04.580Z,18.80
2017-10-13T15:25:13.424Z,18.60
2017-10-13T15:30:22.209Z,18.70
2017-10-13T15:35:31.093Z,18.60
2017-10-13T15:40:39.909Z,18.50
2017-10-13T15:45:48.602Z,18.40
2017-10-13T15:50:58.205Z,18.40
2017-10-13T15:56:01.378Z,18.40
2017-10-13T16:01:04.590Z,18.30
2017-10-13T16:06:07.794Z,18.20
2017-10-13T16:11:11.143Z,18.20
2017-10-13T16:16:14.442Z,18.10
2017-10-13T16:21:17.621Z,18.10
2017-10-13T16:26:20.825Z,18.00
2017-10-13T16:31:24.013Z,18.00
2017-10-13T16:36:29.035Z,17.90
2017-10-13T16:41:32.271Z,17.90
2017-10-13T16:46:36.258Z,17.80
2017-10-13T16:51:39.478Z,17.80
2017-10-13T16:56:42.684Z,17.80
2017-10-13T17:01:46.118Z,17.70
2017-10-13T17:06:50.114Z,17.40
2017-10-13T17:11:53.293Z,17.50
2017-10-13T17:16:58.515Z,17.40
2017-10-13T17:22:02.470Z,17.40
2017-10-13T17:27:05.695Z,17.40
2017-10-13T17:32:08.937Z,17.30
2017-10-13T17:37:13.769Z,17.20
2017-10-13T17:42:17.760Z,17.10
2017-10-13T17:47:20.973Z,17.10
2017-10-13T17:52:24.198Z,16.80
2017-10-13T17:57:27.413Z,16.90
2017-10-13T18:02:30.622Z,16.80
2017-10-13T18:07:33.820Z,16.70
2017-10-13T18:12:37.012Z,16.70
2017-10-13T18:17:40.224Z,16.70
2017-10-13T18:22:43.442Z,16.60
2017-10-13T18:27:46.691Z,16.50
2017-10-13T18:32:50.545Z,16.40
2017-10-13T18:37:53.845Z,16.30
2017-10-13T18:42:57.114Z,16.20
2017-10-13T18:48:01.089Z,16.10
2017-10-13T18:53:04.282Z,16.10
2017-10-13T18:58:07.489Z,16.00
2017-10-13T19:03:10.884Z,16.10
2017-10-13T19:08:14.102Z,15.90
2017-10-13T19:13:17.316Z,15.80
2017-10-13T19:18:20.842Z,15.80
2017-10-13T19:23:24.043Z,15.70
2017-10-13T19:28:27.346Z,15.80
2017-10-13T19:33:30.626Z,15.80
2017-10-13T19:38:33.998Z,15.70
2017-10-13T19:43:38.558Z,15.80
2017-10-13T19:48:41.755Z,15.80
2017-10-13T19:53:45.728Z,15.90
2017-10-13T19:58:49.098Z,15.90
2017-10-13T20:03:52.471Z,15.90
2017-10-13T20:08:55.638Z,15.90
2017-10-13T20:13:58.920Z,15.90
2017-10-13T20:19:02.891Z,15.80
2017-10-13T20:24:06.093Z,15.80
2017-10-13T20:29:09.285Z,15.70
2017-10-13T20:34:12.491Z,15.60
2017-10-13T20:39:15.673Z,15.60
2017-10-13T20:44:19.750Z,15.40
2017-10-13T20:49:22.966Z,15.40
2017-10-13T20:54:26.166Z,15.40
2017-10-13T20:59:29.462Z,15.30
2017-10-13T21:04:32.699Z,15.40
2017-10-13T21:09:35.906Z,15.40
2017-10-13T21:14:39.120Z,15.30
2017-10-13T21:19:42.354Z,15.20
2017-10-13T21:24:46.291Z,15.10
2017-10-13T21:29:49.485Z,15.00
2017-10-13T21:34:53.694Z,15.10
2017-10-13T21:39:56.902Z,15.10
2017-10-13T21:45:00.125Z,15.00
2017-10-13T21:50:04.288Z,15.00
2017-10-13T21:55:07.630Z,15.00
2017-10-13T22:00:10.839Z,15.00
2017-10-13T22:05:14.039Z,15.10
2017-10-13T22:10:17.246Z,15.00
2017-10-13T22:15:20.627Z,14.90
2017-10-13T22:20:23.839Z,15.00
2017-10-13T22:25:27.044Z,15.10
2017-10-13T22:30:30.250Z,15.20
2017-10-13T22:35:33.447Z,15.20
2017-10-13T22:40:36.702Z,15.20
2017-10-13T22:45:40.040Z,15.30
2017-10-13T22:50:43.969Z,15.30
2017-10-13T22:55:47.222Z,15.30
2017-10-13T23:00:50.480Z,15.30
2017-10-13T23:05:54.541Z,15.20
2017-10-13T23:10:57.748Z,15.20
2017-10-13T23:16:00.955Z,15.20
2017-10-13T23:21:04.161Z,15.10
2017-10-13T23:26:07.374Z,15.00
2017-10-13T23:31:10.589Z,14.90
2017-10-13T23:36:13.790Z,14.90
2017-10-13T23:41:17.054Z,14.80
2017-10-13T23:46:21.011Z,14.60
2017-10-13T23:51:24.194Z,14.60
2017-10-13T23:56:27.405Z,14.40
